sensor_id;sensor_type;location;lat;lon;timestamp;pressure;altitude;pressure_sealevel;temperature;humidity
27685;BME280;46113;50.130;8.526;2023-06-22T01:02:42;99191.28;;;16.57;75.41
27685;BME280;46113;50.130;8.526;2023-06-22T01:06:57;99202.06;;;16.55;75.46
27685;BME280;46113;50.130;8.526;2023-06-22T01:23:10;99299.88;;;16.56;74.58
27685;BME280;46113;50.130;8.526;2023-06-22T01:30:57;99312.53;;;16.54;74.91
27685;BME280;46113;50.130;8.526;2023-06-22T01:34:45;99334.56;;;16.68;74.38
27685;BME280;46113;50.130;8.526;2023-06-22T01:38:14;99351.44;;;16.68;74.75
27685;BME280;46113;50.130;8.526;2023-06-22T01:41:39;99373.50;;;16.71;74.72
27685;BME280;46113;50.130;8.526;2023-06-22T01:44:49;99403.53;;;16.74;74.22
27685;BME280;46113;50.130;8.526;2023-06-22T01:48:06;99444.91;;;16.68;74.91
27685;BME280;46113;50.130;8.526;2023-06-22T01:54:38;99447.56;;;16.80;73.80
27685;BME280;46113;50.130;8.526;2023-06-22T01:57:32;99443.56;;;16.86;74.84
27685;BME280;46113;50.130;8.526;2023-06-22T02:00:58;99453.03;;;16.90;75.50
27685;BME280;46113;50.130;8.526;2023-06-22T02:03:51;99449.84;;;16.96;75.98
27685;BME280;46113;50.130;8.526;2023-06-22T02:11:03;99374.06;;;16.97;76.37
27685;BME280;46113;50.130;8.526;2023-06-22T02:14:30;99290.19;;;16.55;77.15
27685;BME280;46113;50.130;8.526;2023-06-22T02:38:53;99124.59;;;16.98;79.43
27685;BME280;46113;50.130;8.526;2023-06-22T02:42:11;99144.06;;;17.10;79.49
27685;BME280;46113;50.130;8.526;2023-06-22T02:56:55;99188.28;;;16.50;80.64
27685;BME280;46113;50.130;8.526;2023-06-22T04:01:55;99201.63;;;16.50;79.02
27685;BME280;46113;50.130;8.526;2023-06-22T04:04:22;99205.28;;;16.49;78.80
27685;BME280;46113;50.130;8.526;2023-06-22T04:06:49;99192.75;;;16.50;78.94
27685;BME280;46113;50.130;8.526;2023-06-22T04:09:16;99193.66;;;16.60;78.97
27685;BME280;46113;50.130;8.526;2023-06-22T04:11:43;99197.53;;;16.67;78.91
27685;BME280;46113;50.130;8.526;2023-06-22T04:14:09;99190.47;;;16.78;78.87
27685;BME280;46113;50.130;8.526;2023-06-22T04:16:36;99186.72;;;16.90;78.91
27685;BME280;46113;50.130;8.526;2023-06-22T04:19:03;99191.31;;;17.09;78.81
27685;BME280;46113;50.130;8.526;2023-06-22T04:21:30;99187.22;;;17.37;78.00
27685;BME280;46113;50.130;8.526;2023-06-22T04:23:56;99187.91;;;17.60;77.54
27685;BME280;46113;50.130;8.526;2023-06-22T04:26:23;99189.44;;;17.63;76.25
27685;BME280;46113;50.130;8.526;2023-06-22T04:28:50;99196.09;;;17.88;76.45
27685;BME280;46113;50.130;8.526;2023-06-22T04:31:18;99198.38;;;17.93;75.82
27685;BME280;46113;50.130;8.526;2023-06-22T04:33:48;99188.97;;;18.28;75.17
27685;BME280;46113;50.130;8.526;2023-06-22T04:36:14;99191.09;;;18.24;73.32
27685;BME280;46113;50.130;8.526;2023-06-22T04:38:41;99187.31;;;18.47;73.01
27685;BME280;46113;50.130;8.526;2023-06-22T04:41:08;99188.84;;;18.39;73.03
27685;BME280;46113;50.130;8.526;2023-06-22T04:43:40;99185.91;;;18.43;71.55
27685;BME280;46113;50.130;8.526;2023-06-22T04:46:07;99181.81;;;18.38;71.88
27685;BME280;46113;50.130;8.526;2023-06-22T04:48:34;99187.59;;;18.34;72.26
27685;BME280;46113;50.130;8.526;2023-06-22T04:51:01;99185.19;;;18.50;71.91
27685;BME280;46113;50.130;8.526;2023-06-22T04:53:31;99182.09;;;18.45;72.00
27685;BME280;46113;50.130;8.526;2023-06-22T04:55:58;99186.31;;;18.38;72.57
27685;BME280;46113;50.130;8.526;2023-06-22T04:58:25;99185.47;;;18.47;72.22
27685;BME280;46113;50.130;8.526;2023-06-22T05:00:55;99192.78;;;18.25;72.57
27685;BME280;46113;50.130;8.526;2023-06-22T05:03:25;99194.50;;;18.46;72.07
27685;BME280;46113;50.130;8.526;2023-06-22T05:05:52;99192.78;;;18.55;71.65
27685;BME280;46113;50.130;8.526;2023-06-22T05:08:20;99193.06;;;18.62;70.62
27685;BME280;46113;50.130;8.526;2023-06-22T05:10:46;99192.66;;;18.37;71.17
27685;BME280;46113;50.130;8.526;2023-06-22T05:13:31;99187.84;;;18.60;70.19
27685;BME280;46113;50.130;8.526;2023-06-22T05:34:11;99174.16;;;18.53;72.43
27685;BME280;46113;50.130;8.526;2023-06-22T05:36:53;99181.13;;;18.94;70.88
27685;BME280;46113;50.130;8.526;2023-06-22T05:39:20;99170.75;;;19.57;68.45
27685;BME280;46113;50.130;8.526;2023-06-22T05:41:48;99177.53;;;20.25;66.58
27685;BME280;46113;50.130;8.526;2023-06-22T05:44:15;99171.59;;;20.40;64.94
27685;BME280;46113;50.130;8.526;2023-06-22T05:46:43;99175.56;;;20.72;64.15
27685;BME280;46113;50.130;8.526;2023-06-22T05:49:17;99175.13;;;21.12;60.50
27685;BME280;46113;50.130;8.526;2023-06-22T05:51:44;99179.34;;;21.41;59.51
27685;BME280;46113;50.130;8.526;2023-06-22T05:54:11;99175.88;;;21.65;59.33
27685;BME280;46113;50.130;8.526;2023-06-22T05:56:40;99181.03;;;22.02;57.90
27685;BME280;46113;50.130;8.526;2023-06-22T05:59:07;99175.44;;;21.87;57.67
27685;BME280;46113;50.130;8.526;2023-06-22T06:01:37;99172.81;;;22.12;57.75
27685;BME280;46113;50.130;8.526;2023-06-22T06:04:08;99173.47;;;22.30;56.74
27685;BME280;46113;50.130;8.526;2023-06-22T06:06:35;99157.63;;;23.42;53.12
27685;BME280;46113;50.130;8.526;2023-06-22T06:09:07;99150.78;;;23.63;51.82
27685;BME280;46113;50.130;8.526;2023-06-22T06:11:34;99148.16;;;23.78;51.98
27685;BME280;46113;50.130;8.526;2023-06-22T06:14:01;99150.72;;;24.03;51.70
27685;BME280;46113;50.130;8.526;2023-06-22T06:16:28;99147.41;;;25.23;50.05
27685;BME280;46113;50.130;8.526;2023-06-22T06:18:56;99149.38;;;26.47;46.78
27685;BME280;46113;50.130;8.526;2023-06-22T06:21:23;99148.06;;;27.00;44.62
27685;BME280;46113;50.130;8.526;2023-06-22T06:23:50;99144.63;;;27.68;44.55
27685;BME280;46113;50.130;8.526;2023-06-22T06:26:16;99138.38;;;27.74;41.74
27685;BME280;46113;50.130;8.526;2023-06-22T06:28:43;99142.28;;;27.58;42.00
27685;BME280;46113;50.130;8.526;2023-06-22T06:31:10;99141.25;;;27.53;43.75
27685;BME280;46113;50.130;8.526;2023-06-22T06:33:39;99129.63;;;27.93;41.80
27685;BME280;46113;50.130;8.526;2023-06-22T06:36:05;99128.41;;;28.02;42.53
27685;BME280;46113;50.130;8.526;2023-06-22T06:38:35;99128.63;;;27.38;42.26
27685;BME280;46113;50.130;8.526;2023-06-22T06:41:01;99120.69;;;28.19;41.89
27685;BME280;46113;50.130;8.526;2023-06-22T06:43:28;99113.78;;;28.10;41.07
27685;BME280;46113;50.130;8.526;2023-06-22T06:45:58;99112.53;;;29.32;39.79
27685;BME280;46113;50.130;8.526;2023-06-22T06:48:25;99110.28;;;29.94;39.19
27685;BME280;46113;50.130;8.526;2023-06-22T06:50:52;99113.44;;;29.65;38.39
27685;BME280;46113;50.130;8.526;2023-06-22T06:53:18;99098.56;;;30.70;36.10
27685;BME280;46113;50.130;8.526;2023-06-22T06:55:45;99098.66;;;30.37;36.73
27685;BME280;46113;50.130;8.526;2023-06-22T06:58:12;99101.94;;;29.11;39.00
27685;BME280;46113;50.130;8.526;2023-06-22T07:00:40;99098.09;;;28.59;39.44
27685;BME280;46113;50.130;8.526;2023-06-22T07:03:08;99090.16;;;30.90;36.72
27685;BME280;46113;50.130;8.526;2023-06-22T07:05:35;99084.81;;;31.33;35.34
27685;BME280;46113;50.130;8.526;2023-06-22T07:08:02;99090.47;;;31.50;35.91
27685;BME280;46113;50.130;8.526;2023-06-22T07:10:29;99084.00;;;31.32;35.18
27685;BME280;46113;50.130;8.526;2023-06-22T07:12:57;99088.25;;;32.01;33.68
27685;BME280;46113;50.130;8.526;2023-06-22T07:15:24;99079.56;;;29.48;36.97
27685;BME280;46113;50.130;8.526;2023-06-22T07:17:52;99074.28;;;30.17;36.48
27685;BME280;46113;50.130;8.526;2023-06-22T07:20:19;99077.28;;;31.16;33.94
27685;BME280;46113;50.130;8.526;2023-06-22T07:22:46;99069.59;;;32.70;33.07
27685;BME280;46113;50.130;8.526;2023-06-22T07:25:13;99066.00;;;31.55;33.71
27685;BME280;46113;50.130;8.526;2023-06-22T07:28:04;99070.78;;;32.50;32.85
27685;BME280;46113;50.130;8.526;2023-06-22T07:30:32;99075.31;;;33.50;31.78
27685;BME280;46113;50.130;8.526;2023-06-22T07:33:00;99077.69;;;33.76;30.90
27685;BME280;46113;50.130;8.526;2023-06-22T07:35:33;99072.97;;;33.42;31.46
27685;BME280;46113;50.130;8.526;2023-06-22T07:38:03;99069.75;;;32.39;31.92
27685;BME280;46113;50.130;8.526;2023-06-22T07:40:51;99065.06;;;33.75;31.15
27685;BME280;46113;50.130;8.526;2023-06-22T07:46:33;99070.69;;;32.33;32.19
27685;BME280;46113;50.130;8.526;2023-06-22T07:49:16;99058.41;;;32.00;31.63
27685;BME280;46113;50.130;8.526;2023-06-22T07:54:58;99053.72;;;31.64;31.84
27685;BME280;46113;50.130;8.526;2023-06-22T07:58:05;99052.09;;;31.75;32.18
27685;BME280;46113;50.130;8.526;2023-06-22T08:00:34;99046.06;;;31.54;32.13
27685;BME280;46113;50.130;8.526;2023-06-22T08:03:02;99052.59;;;32.68;31.59
27685;BME280;46113;50.130;8.526;2023-06-22T08:05:38;99053.69;;;33.66;30.72
27685;BME280;46113;50.130;8.526;2023-06-22T08:08:06;99043.66;;;34.85;28.92
27685;BME280;46113;50.130;8.526;2023-06-22T08:10:44;99040.53;;;35.26;27.72
27685;BME280;46113;50.130;8.526;2023-06-22T08:13:19;99032.63;;;35.57;28.03
27685;BME280;46113;50.130;8.526;2023-06-22T10:42:39;98938.88;;;28.57;37.37
27685;BME280;46113;50.130;8.526;2023-06-22T10:45:08;98928.19;;;28.62;37.59
27685;BME280;46113;50.130;8.526;2023-06-22T10:47:46;98922.13;;;28.66;38.58
27685;BME280;46113;50.130;8.526;2023-06-22T10:50:42;98909.63;;;28.45;38.78
27685;BME280;46113;50.130;8.526;2023-06-22T10:53:23;98913.13;;;28.66;37.33
27685;BME280;46113;50.130;8.526;2023-06-22T10:55:58;98897.06;;;28.51;37.83
27685;BME280;46113;50.130;8.526;2023-06-22T10:58:26;98900.00;;;28.88;38.60
27685;BME280;46113;50.130;8.526;2023-06-22T11:01:02;98905.06;;;28.32;38.24
27685;BME280;46113;50.130;8.526;2023-06-22T11:04:02;98884.56;;;28.82;38.03
27685;BME280;46113;50.130;8.526;2023-06-22T11:06:30;98881.53;;;28.97;37.26
27685;BME280;46113;50.130;8.526;2023-06-22T11:09:02;98885.09;;;28.06;40.62
27685;BME280;46113;50.130;8.526;2023-06-22T11:11:51;98874.88;;;28.47;37.13
27685;BME280;46113;50.130;8.526;2023-06-22T11:14:48;98877.78;;;28.59;37.62
27685;BME280;46113;50.130;8.526;2023-06-22T11:17:52;98870.78;;;28.31;37.43
27685;BME280;46113;50.130;8.526;2023-06-22T11:20:35;98867.91;;;28.72;37.59
27685;BME280;46113;50.130;8.526;2023-06-22T12:15:40;98793.31;;;28.47;38.22
27685;BME280;46113;50.130;8.526;2023-06-22T12:22:57;98777.72;;;28.29;40.14
27685;BME280;46113;50.130;8.526;2023-06-22T12:26:37;98771.28;;;27.71;40.42
27685;BME280;46113;50.130;8.526;2023-06-22T12:32:53;98772.22;;;28.43;38.63
27685;BME280;46113;50.130;8.526;2023-06-22T12:35:47;98771.56;;;28.47;38.93
27685;BME280;46113;50.130;8.526;2023-06-22T12:38:48;98765.84;;;28.62;39.76
27685;BME280;46113;50.130;8.526;2023-06-22T12:44:55;98767.78;;;28.09;39.68
27685;BME280;46113;50.130;8.526;2023-06-22T12:47:51;98762.03;;;27.85;39.79
27685;BME280;46113;50.130;8.526;2023-06-22T12:50:41;98761.47;;;27.70;40.04
27685;BME280;46113;50.130;8.526;2023-06-22T12:53:32;98748.78;;;27.50;40.58
27685;BME280;46113;50.130;8.526;2023-06-22T18:19:39;98648.19;;;22.15;52.76
27685;BME280;46113;50.130;8.526;2023-06-22T18:22:17;98639.56;;;22.20;50.14
27685;BME280;46113;50.130;8.526;2023-06-22T18:24:52;98643.69;;;22.31;50.70
27685;BME280;46113;50.130;8.526;2023-06-22T18:27:22;98636.22;;;22.18;52.09
27685;BME280;46113;50.130;8.526;2023-06-22T18:29:57;98629.88;;;22.11;52.35
27685;BME280;46113;50.130;8.526;2023-06-22T21:21:06;98627.09;;;20.09;54.81
27685;BME280;46113;50.130;8.526;2023-06-22T21:27:43;98634.59;;;20.05;54.34
27685;BME280;46113;50.130;8.526;2023-06-22T21:30:35;98640.66;;;19.99;55.39
27685;BME280;46113;50.130;8.526;2023-06-22T21:34:04;98649.56;;;20.00;55.36
27685;BME280;46113;50.130;8.526;2023-06-22T21:36:45;98643.50;;;20.06;55.05
27685;BME280;46113;50.130;8.526;2023-06-22T21:43:42;98671.53;;;19.60;55.83
27685;BME280;46113;50.130;8.526;2023-06-22T21:51:07;98700.19;;;19.51;56.08
27685;BME280;46113;50.130;8.526;2023-06-22T21:54:55;98721.63;;;19.51;56.30
27685;BME280;46113;50.130;8.526;2023-06-22T21:57:40;98739.03;;;19.47;56.28
27685;BME280;46113;50.130;8.526;2023-06-22T22:00:54;98737.09;;;19.31;56.44
27685;BME280;46113;50.130;8.526;2023-06-22T22:04:20;98740.28;;;19.08;57.35
27685;BME280;46113;50.130;8.526;2023-06-22T22:08:00;98741.53;;;19.14;56.66
27685;BME280;46113;50.130;8.526;2023-06-22T22:11:07;98735.84;;;19.17;56.57
27685;BME280;46113;50.130;8.526;2023-06-22T22:14:38;98740.69;;;19.13;56.50
27685;BME280;46113;50.130;8.526;2023-06-22T22:17:25;98754.19;;;19.30;56.18
27685;BME280;46113;50.130;8.526;2023-06-22T23:21:06;98715.41;;;18.17;62.31
27685;BME280;46113;50.130;8.526;2023-06-22T23:24:23;98708.13;;;18.27;61.91
27685;BME280;46113;50.130;8.526;2023-06-22T23:31:57;98715.78;;;18.22;62.03
27685;BME280;46113;50.130;8.526;2023-06-22T23:35:34;98710.47;;;18.12;62.13
27685;BME280;46113;50.130;8.526;2023-06-22T23:38:28;98717.59;;;18.21;61.65
27685;BME280;46113;50.130;8.526;2023-06-22T23:41:54;98725.22;;;17.98;62.42
27685;BME280;46113;50.130;8.526;2023-06-22T23:44:36;98726.50;;;17.94;62.57
27685;BME280;46113;50.130;8.526;2023-06-22T23:47:49;98728.69;;;17.80;62.58
27685;BME280;46113;50.130;8.526;2023-06-22T23:55:06;98734.72;;;17.54;63.19
27685;BME280;46113;50.130;8.526;2023-06-22T23:58:45;98749.09;;;17.53;63.31
